Time;durP1;ratioP1;P1;durP2;ratioP2;P2;SDS_P1;SDS_P2;PMS_P1;PMS_P2;Temp;Humidity;BMP_temperature;BMP_pressure;BME280_temperature;BME280_humidity;BME280_pressure;Samples;Min_cycle;Max_cycle;Signal;HPM_P1;HPM_P2
2021/07/28 00:02:22;;;;;;;4.43;3.33;;;;;;;18.67;72.24;100327.44;5064694;28;20212;-79
2021/07/28 00:04:49;;;;;;;4.87;3.50;;;;;;;18.63;72.13;100315.28;5051225;28;20209;-79
2021/07/28 00:07:15;;;;;;;4.10;3.60;;;;;;;18.61;72.11;100320.00;5055361;28;20571;-79
2021/07/28 00:09:42;;;;;;;3.97;3.03;;;;;;;18.59;72.01;100316.63;5058882;28;20210;-79
2021/07/28 00:12:09;;;;;;;4.57;3.20;;;;;;;18.58;71.87;100314.03;5050619;28;20224;-81
2021/07/28 00:14:35;;;;;;;4.80;3.27;;;;;;;18.57;71.84;100310.50;5055732;28;20274;-79
2021/07/28 00:17:05;;;;;;;4.27;3.50;;;;;;;18.57;71.44;100313.19;5056871;28;20228;-79
2021/07/28 00:19:34;;;;;;;3.67;3.10;;;;;;;18.55;71.82;100301.72;5064070;28;20661;-79
2021/07/28 00:24:44;;;;;;;5.13;3.33;;;;;;;18.52;71.54;100310.09;5053836;28;20227;-79
2021/07/28 00:27:11;;;;;;;5.10;3.20;;;;;;;18.52;71.70;100311.97;5056062;28;20680;-79
2021/07/28 00:29:38;;;;;;;3.80;3.17;;;;;;;18.52;71.54;100303.88;5055018;28;20215;-79
2021/07/28 00:32:06;;;;;;;4.57;3.47;;;;;;;18.51;71.64;100303.03;5062780;28;20222;-79
2021/07/28 00:34:33;;;;;;;5.10;3.30;;;;;;;18.53;71.77;100301.03;5055010;28;20209;-79
2021/07/28 00:36:59;;;;;;;3.97;3.07;;;;;;;18.54;71.68;100300.03;5060868;28;20224;-79
2021/07/28 00:39:26;;;;;;;4.57;3.53;;;;;;;18.55;71.52;100293.63;5055603;28;20213;-78
2021/07/28 00:41:52;;;;;;;4.03;3.33;;;;;;;18.55;71.43;100293.63;5055185;28;20209;-79
2021/07/28 00:44:19;;;;;;;4.27;3.50;;;;;;;18.55;71.38;100299.00;5055427;28;20206;-79
2021/07/28 00:46:45;;;;;;;5.30;3.67;;;;;;;18.54;71.33;100297.31;5054618;28;20232;-79
2021/07/28 00:49:13;;;;;;;3.83;3.27;;;;;;;18.54;71.22;100296.47;5054404;28;20202;-79
2021/07/28 00:51:40;;;;;;;4.30;3.47;;;;;;;18.52;71.29;100296.63;5056003;28;20209;-79
2021/07/28 00:54:06;;;;;;;3.77;3.07;;;;;;;18.52;71.09;100290.38;5060297;28;20207;-79
2021/07/28 00:56:33;;;;;;;5.07;3.30;;;;;;;18.49;71.23;100278.06;5062812;28;20862;-78
2021/07/28 00:59:00;;;;;;;5.10;3.20;;;;;;;18.48;71.21;100284.44;5060457;28;20197;-78
2021/07/28 01:01:27;;;;;;;6.13;3.37;;;;;;;18.49;71.32;100285.31;5064733;28;20234;-79
2021/07/28 01:03:54;;;;;;;3.83;3.27;;;;;;;18.48;71.32;100289.84;5052829;28;20212;-79
2021/07/28 01:06:21;;;;;;;5.23;3.57;;;;;;;18.48;71.19;100280.91;5060707;28;20238;-79
2021/07/28 01:08:48;;;;;;;7.00;3.77;;;;;;;18.46;71.26;100283.75;5060120;28;20215;-79
2021/07/28 01:11:23;;;;;;;5.23;3.63;;;;;;;18.46;71.04;100286.47;5061683;28;20198;-79
2021/07/28 01:13:50;;;;;;;6.47;3.70;;;;;;;18.45;71.28;100279.38;5058373;28;20210;-79
2021/07/28 01:16:20;;;;;;;4.33;3.10;;;;;;;18.44;71.26;100280.41;5060371;28;20226;-78
2021/07/28 01:18:47;;;;;;;3.50;3.00;;;;;;;18.43;71.28;100278.69;5054120;28;20292;-78
2021/07/28 01:21:15;;;;;;;4.47;3.13;;;;;;;18.42;71.25;100292.34;5054019;28;20201;-78
2021/07/28 01:23:43;;;;;;;3.97;3.00;;;;;;;18.41;71.32;100282.56;5060587;28;20205;-78
2021/07/28 01:26:09;;;;;;;4.53;3.40;;;;;;;18.39;71.37;100296.19;5061327;28;20227;-79
2021/07/28 01:28:38;;;;;;;5.10;3.73;;;;;;;18.39;71.38;100291.66;5057071;28;20224;-80
2021/07/28 01:31:06;;;;;;;4.20;3.23;;;;;;;18.38;71.48;100281.00;5057680;28;20541;-78
2021/07/28 01:33:34;;;;;;;4.67;3.13;;;;;;;18.36;71.47;100286.56;5057091;28;20202;-78
2021/07/28 01:36:01;;;;;;;4.60;3.20;;;;;;;18.35;71.47;100276.78;5053303;28;20219;-78
2021/07/28 01:38:28;;;;;;;5.30;3.30;;;;;;;18.33;71.58;100284.16;5053935;28;20225;-78
2021/07/28 01:40:58;;;;;;;3.30;2.97;;;;;;;18.32;71.56;100284.31;5059626;28;20199;-78
2021/07/28 01:43:27;;;;;;;3.87;3.03;;;;;;;18.28;71.70;100285.63;5057154;28;20220;-78
2021/07/28 01:45:53;;;;;;;4.40;3.07;;;;;;;18.24;71.75;100286.97;5054460;28;20226;-78
2021/07/28 01:48:20;;;;;;;3.87;3.20;;;;;;;18.20;71.72;100290.97;5056785;28;20212;-78
2021/07/28 01:50:47;;;;;;;3.50;3.20;;;;;;;18.15;71.94;100291.41;5054717;28;20216;-78
2021/07/28 01:53:14;;;;;;;4.30;3.27;;;;;;;18.10;71.95;100282.09;5053619;28;20644;-78
2021/07/28 01:55:41;;;;;;;3.47;3.17;;;;;;;18.07;72.04;100280.59;5053459;28;20224;-78
2021/07/28 01:58:10;;;;;;;3.67;3.03;;;;;;;18.02;72.08;100281.03;5053777;28;20254;-79
2021/07/28 02:00:37;;;;;;;5.33;3.20;;;;;;;17.98;72.11;100286.88;5063108;28;20664;-78
2021/07/28 02:03:04;;;;;;;3.77;2.97;;;;;;;17.95;72.41;100293.41;5057074;28;20225;-78
2021/07/28 02:05:30;;;;;;;4.53;2.97;;;;;;;17.92;72.46;100285.63;5050945;28;20268;-78
2021/07/28 02:08:01;;;;;;;5.13;3.27;;;;;;;17.90;72.44;100281.44;5066762;28;20204;-79
2021/07/28 02:10:28;;;;;;;4.53;3.20;;;;;;;17.87;72.60;100282.56;5055895;28;20737;-79
2021/07/28 02:12:54;;;;;;;3.07;2.77;;;;;;;17.85;72.72;100273.78;5045313;28;20232;-78
2021/07/28 02:15:23;;;;;;;3.67;3.33;;;;;;;17.82;72.80;100274.09;5064711;28;20207;-79
2021/07/28 02:17:50;;;;;;;4.47;3.47;;;;;;;17.79;73.02;100284.31;5058553;28;20337;-79
2021/07/28 02:20:17;;;;;;;3.40;3.00;;;;;;;17.75;73.15;100289.16;5046034;28;20208;-79
2021/07/28 02:22:44;;;;;;;4.53;3.50;;;;;;;17.72;73.21;100296.72;5047400;28;20214;-78
2021/07/28 02:25:11;;;;;;;3.50;3.00;;;;;;;17.68;73.49;100298.88;5052976;28;20212;-78
2021/07/28 02:27:38;;;;;;;3.60;2.93;;;;;;;17.65;73.53;100300.00;5054357;28;20206;-79
2021/07/28 02:30:06;;;;;;;4.50;3.60;;;;;;;17.62;73.61;100299.41;5056398;28;20204;-79
2021/07/28 02:32:34;;;;;;;5.23;3.43;;;;;;;17.60;73.70;100296.03;5057251;28;20597;-78
2021/07/28 02:35:01;;;;;;;4.33;3.50;;;;;;;17.56;73.79;100297.31;5061425;28;20203;-79
2021/07/28 02:37:27;;;;;;;4.80;3.33;;;;;;;17.53;74.02;100290.41;5059978;28;20239;-78
2021/07/28 02:39:54;;;;;;;3.93;3.20;;;;;;;17.52;74.17;100301.34;5059300;28;20215;-78
2021/07/28 02:42:20;;;;;;;4.27;3.20;;;;;;;17.49;74.17;100304.31;5058111;28;20223;-78
2021/07/28 02:44:47;;;;;;;4.67;3.43;;;;;;;17.48;74.29;100302.63;5059425;28;20212;-78
2021/07/28 02:47:13;;;;;;;4.90;3.57;;;;;;;17.46;74.30;100304.63;5063835;28;20349;-78
2021/07/28 02:49:41;;;;;;;4.23;3.30;;;;;;;17.45;74.40;100308.31;5054149;28;20664;-78
2021/07/28 02:52:08;;;;;;;7.77;3.60;;;;;;;17.43;74.38;100307.59;5057376;28;20225;-78
2021/07/28 02:54:35;;;;;;;5.20;3.40;;;;;;;17.41;74.42;100305.06;5057623;28;20206;-78
2021/07/28 02:57:01;;;;;;;4.80;3.40;;;;;;;17.40;74.49;100305.19;5066701;28;20302;-79
2021/07/28 02:59:28;;;;;;;4.40;3.40;;;;;;;17.39;74.54;100309.75;5077747;28;20215;-78
2021/07/28 03:01:55;;;;;;;6.30;3.67;;;;;;;17.37;74.66;100310.91;5059611;28;20219;-79
2021/07/28 03:04:22;;;;;;;4.20;3.30;;;;;;;17.34;74.85;100310.22;5062947;28;20215;-78
2021/07/28 03:06:50;;;;;;;4.53;3.20;;;;;;;17.33;74.77;100305.81;5056376;28;20756;-79
2021/07/28 03:09:16;;;;;;;6.23;3.43;;;;;;;17.31;74.71;100313.19;5064743;28;20797;-78
2021/07/28 03:11:43;;;;;;;3.60;3.30;;;;;;;17.30;74.70;100311.50;5057041;28;20215;-79
2021/07/28 03:14:09;;;;;;;8.00;3.83;;;;;;;17.28;74.76;100310.78;5051271;28;20204;-78
2021/07/28 03:16:36;;;;;;;3.77;2.97;;;;;;;17.29;74.64;100325.09;5051881;28;20231;-78
2021/07/28 03:19:02;;;;;;;5.83;3.93;;;;;;;17.26;74.81;100311.94;5056582;28;20227;-79
2021/07/28 03:21:29;;;;;;;7.00;3.60;;;;;;;17.24;74.79;100316.63;5055173;28;20208;-78
2021/07/28 03:23:57;;;;;;;5.40;3.53;;;;;;;17.25;74.79;100321.84;5055004;28;20204;-79
2021/07/28 03:26:23;;;;;;;4.53;3.23;;;;;;;17.23;74.90;100314.91;5056275;28;20231;-78
2021/07/28 03:28:50;;;;;;;7.77;4.00;;;;;;;17.22;74.85;100326.66;5058790;28;20213;-78
2021/07/28 03:31:16;;;;;;;7.90;4.30;;;;;;;17.19;74.87;100324.31;5050566;28;20216;-78
2021/07/28 03:33:43;;;;;;;6.67;4.60;;;;;;;17.16;74.96;100322.75;5054691;28;20204;-78
2021/07/28 03:36:09;;;;;;;5.17;4.67;;;;;;;17.16;75.26;100327.28;5055823;28;20238;-78
2021/07/28 03:38:36;;;;;;;7.77;4.50;;;;;;;17.14;75.26;100327.44;5062403;28;20244;-78
2021/07/28 03:41:04;;;;;;;5.93;3.87;;;;;;;17.13;75.38;100323.03;5057787;28;20208;-78
2021/07/28 03:43:30;;;;;;;6.23;4.33;;;;;;;17.11;75.43;100327.72;5065623;28;20204;-78
2021/07/28 03:45:57;;;;;;;6.73;4.23;;;;;;;17.09;75.49;100324.31;5058270;28;20223;-78
2021/07/28 03:48:29;;;;;;;6.07;4.17;;;;;;;17.09;75.58;100318.94;5051948;28;20293;-79
2021/07/28 03:50:57;;;;;;;8.13;4.17;;;;;;;17.07;75.72;100315.53;5054800;28;20776;-78
2021/07/28 03:53:23;;;;;;;4.70;3.80;;;;;;;17.06;75.80;100319.22;5054930;28;20681;-78
2021/07/28 03:55:50;;;;;;;4.30;3.87;;;;;;;17.04;75.78;100313.13;5049498;28;20223;-78
2021/07/28 03:58:18;;;;;;;4.30;3.83;;;;;;;17.04;75.94;100314.97;5060823;28;20226;-78
2021/07/28 04:00:44;;;;;;;5.47;3.77;;;;;;;17.02;75.95;100317.00;5061618;28;20219;-79
2021/07/28 04:03:11;;;;;;;4.03;3.67;;;;;;;17.00;75.98;100306.38;5055483;28;20199;-78
2021/07/28 04:05:37;;;;;;;6.17;4.30;;;;;;;16.98;76.14;100305.69;5052335;28;20228;-78
2021/07/28 04:08:05;;;;;;;5.60;4.20;;;;;;;16.98;76.14;100305.69;5055104;28;20200;-78
2021/07/28 04:10:31;;;;;;;4.00;3.70;;;;;;;16.98;76.25;100301.16;5054881;28;20214;-79
2021/07/28 04:12:58;;;;;;;4.90;4.40;;;;;;;16.98;76.29;100305.69;5058722;28;20229;-79
2021/07/28 04:15:26;;;;;;;5.17;3.67;;;;;;;16.98;76.45;100305.69;5060703;28;20214;-79
2021/07/28 04:17:52;;;;;;;4.77;3.93;;;;;;;16.97;76.44;100304.81;5055356;28;20229;-78
2021/07/28 04:20:19;;;;;;;4.40;3.70;;;;;;;16.97;76.54;100301.28;5055582;28;20211;-78
2021/07/28 04:22:45;;;;;;;4.73;4.13;;;;;;;16.98;76.67;100303.00;5055196;28;20203;-78
2021/07/28 04:25:13;;;;;;;6.90;3.87;;;;;;;16.97;76.56;100298.59;5055367;28;20215;-78
2021/07/28 04:27:39;;;;;;;5.40;4.20;;;;;;;16.99;76.66;100293.91;5054937;28;20283;-78
2021/07/28 04:30:07;;;;;;;5.90;4.17;;;;;;;16.98;76.80;100297.59;5055456;28;20506;-79
2021/07/28 04:32:35;;;;;;;5.27;4.03;;;;;;;16.97;76.72;100287.84;5056599;28;20694;-78
2021/07/28 04:35:01;;;;;;;5.27;4.27;;;;;;;16.98;76.86;100290.38;5056508;28;20208;-78
2021/07/28 04:37:28;;;;;;;7.30;4.20;;;;;;;16.99;76.93;100285.84;5056418;28;20234;-78
2021/07/28 04:39:55;;;;;;;6.27;4.23;;;;;;;17.00;76.75;100287.56;5055859;28;20211;-81
2021/07/28 04:42:22;;;;;;;4.47;4.07;;;;;;;17.00;76.87;100282.16;5061303;28;20202;-79
2021/07/28 04:44:48;;;;;;;4.70;4.07;;;;;;;17.01;76.77;100278.50;5056369;28;20668;-78
2021/07/28 04:47:15;;;;;;;6.73;3.80;;;;;;;17.02;76.72;100281.00;5056807;28;20602;-79
2021/07/28 04:49:43;;;;;;;5.57;3.97;;;;;;;17.04;76.64;100280.00;5055660;28;20206;-79
2021/07/28 04:52:11;;;;;;;5.00;4.03;;;;;;;17.04;76.72;100278.16;5056676;28;20204;-78
2021/07/28 04:54:37;;;;;;;4.77;4.07;;;;;;;17.04;76.51;100274.63;5052209;28;20642;-78
2021/07/28 04:57:05;;;;;;;5.67;3.90;;;;;;;17.05;76.53;100274.47;5055777;28;20228;-80
2021/07/28 04:59:31;;;;;;;4.67;3.97;;;;;;;17.06;76.52;100273.50;5055579;28;20696;-80
2021/07/28 05:01:58;;;;;;;4.63;3.90;;;;;;;17.09;76.50;100275.03;5052025;28;20204;-80
2021/07/28 05:04:24;;;;;;;5.80;4.10;;;;;;;17.10;76.38;100272.19;5054959;28;20203;-80
2021/07/28 05:06:52;;;;;;;7.23;4.37;;;;;;;17.12;76.45;100272.06;5056492;28;20242;-80
2021/07/28 05:09:19;;;;;;;4.57;3.63;;;;;;;17.12;76.55;100275.59;5057331;28;20215;-80
2021/07/28 05:11:46;;;;;;;5.20;3.80;;;;;;;17.15;76.53;100269.91;5057226;28;20208;-80
2021/07/28 05:14:12;;;;;;;4.63;3.90;;;;;;;17.17;76.35;100278.69;5058331;28;20203;-80
2021/07/28 05:16:39;;;;;;;4.67;4.03;;;;;;;17.20;76.41;100282.91;5060927;28;20227;-81
2021/07/28 05:19:06;;;;;;;7.13;5.33;;;;;;;17.22;76.43;100283.63;5070940;28;20220;-80
2021/07/28 05:21:32;;;;;;;4.53;4.00;;;;;;;17.25;76.32;100286.00;5067010;28;20211;-80
2021/07/28 05:24:00;;;;;;;4.80;4.30;;;;;;;17.30;76.30;100294.50;5059654;28;20555;-80
2021/07/28 05:26:26;;;;;;;4.43;4.03;;;;;;;17.34;76.34;100285.13;5056731;28;20256;-81
2021/07/28 05:28:53;;;;;;;5.90;4.23;;;;;;;17.39;76.25;100285.50;5058931;28;20206;-80
2021/07/28 05:31:19;;;;;;;4.57;4.07;;;;;;;17.43;76.13;100289.59;5051752;28;20216;-80
2021/07/28 05:33:46;;;;;;;4.80;3.70;;;;;;;17.48;76.04;100291.84;5057947;28;20210;-80
2021/07/28 05:36:12;;;;;;;5.03;4.07;;;;;;;17.54;75.86;100285.88;5070193;28;20736;-80
2021/07/28 05:38:39;;;;;;;4.40;3.80;;;;;;;17.63;75.86;100287.66;5057902;28;20227;-80
2021/07/28 05:41:07;;;;;;;5.10;4.30;;;;;;;17.73;75.81;100293.03;5064714;28;20208;-80
2021/07/28 05:43:33;;;;;;;5.23;4.33;;;;;;;17.82;75.63;100292.94;5059870;28;20215;-80
2021/07/28 05:46:00;;;;;;;5.50;4.33;;;;;;;17.91;75.55;100288.50;5056323;28;20224;-80
2021/07/28 05:48:31;;;;;;;5.40;4.20;;;;;;;18.03;75.33;100303.44;5054935;28;20586;-80
2021/07/28 05:50:57;;;;;;;4.53;4.13;;;;;;;18.16;75.08;100303.06;5055650;28;20200;-80
2021/07/28 05:53:24;;;;;;;5.60;4.17;;;;;;;18.29;74.75;100303.50;5052807;28;20215;-81
2021/07/28 05:55:50;;;;;;;5.93;4.37;;;;;;;18.39;74.49;100309.66;5056719;28;20223;-81
2021/07/28 05:58:18;;;;;;;4.47;4.07;;;;;;;18.50;74.40;100297.78;5056614;28;20348;-81
2021/07/28 06:00:45;;;;;;;5.93;4.37;;;;;;;18.63;74.06;100301.78;5053205;28;20215;-81
2021/07/28 06:03:11;;;;;;;5.03;3.97;;;;;;;18.76;73.77;100311.34;5055261;28;20208;-81
2021/07/28 06:05:38;;;;;;;4.27;3.87;;;;;;;18.90;73.58;100318.84;5055314;28;20218;-81
2021/07/28 06:08:05;;;;;;;6.70;4.13;;;;;;;19.03;72.83;100308.47;5049606;28;20577;-80
2021/07/28 06:10:31;;;;;;;5.60;4.17;;;;;;;19.12;71.70;100303.97;5052002;28;20206;-81
2021/07/28 06:13:00;;;;;;;6.27;3.60;;;;;;;19.18;71.17;100301.47;5055891;28;20205;-80
2021/07/28 06:15:28;;;;;;;4.67;4.00;;;;;;;19.22;70.09;100286.63;5060657;28;20202;-80
2021/07/28 06:17:55;;;;;;;6.17;3.33;;;;;;;19.24;69.77;100292.72;5048069;28;20209;-80
2021/07/28 06:20:21;;;;;;;4.40;3.80;;;;;;;19.32;69.61;100298.19;5059081;28;20202;-81
2021/07/28 06:22:48;;;;;;;4.43;3.83;;;;;;;19.45;69.84;100299.56;5054367;28;20205;-83
2021/07/28 06:25:14;;;;;;;4.40;3.67;;;;;;;19.60;69.67;100304.22;5058494;28;20204;-82
2021/07/28 06:27:41;;;;;;;3.73;3.43;;;;;;;19.74;69.00;100306.28;5055188;28;20213;-83
2021/07/28 06:30:08;;;;;;;6.37;4.00;;;;;;;19.80;68.29;100302.09;5043594;28;20203;-83
2021/07/28 06:32:36;;;;;;;3.90;3.60;;;;;;;19.79;67.66;100294.16;5054252;28;20649;-83
2021/07/28 06:35:03;;;;;;;8.87;3.80;;;;;;;19.83;67.76;100301.75;5053378;28;20205;-83
2021/07/28 06:37:29;;;;;;;4.00;3.70;;;;;;;19.93;67.96;100302.44;5060113;28;20225;-83
2021/07/28 06:39:56;;;;;;;5.60;3.50;;;;;;;20.06;67.34;100297.41;5049601;28;20232;-82
2021/07/28 06:42:22;;;;;;;4.13;3.60;;;;;;;20.17;67.17;100304.34;5052315;28;20216;-83
2021/07/28 06:44:49;;;;;;;7.13;3.67;;;;;;;20.34;66.79;100299.81;5051466;28;20225;-83
2021/07/28 06:47:16;;;;;;;4.73;3.80;;;;;;;20.50;66.72;100294.44;5051739;28;20233;-82
2021/07/28 06:49:44;;;;;;;4.77;3.60;;;;;;;20.71;66.23;100294.75;5056586;28;20229;-83
2021/07/28 06:52:10;;;;;;;4.27;3.53;;;;;;;20.90;65.07;100295.41;5055116;28;20558;-83
2021/07/28 06:54:37;;;;;;;4.70;3.83;;;;;;;20.94;63.56;100292.19;5053269;28;20213;-83
2021/07/28 06:57:04;;;;;;;4.67;3.73;;;;;;;20.91;63.09;100295.22;5058361;28;20227;-83
2021/07/28 06:59:30;;;;;;;4.17;3.70;;;;;;;20.94;63.49;100294.91;5054465;28;20765;-83
2021/07/28 07:01:57;;;;;;;4.00;3.60;;;;;;;20.99;63.28;100294.34;5057692;28;20200;-83
2021/07/28 07:04:23;;;;;;;4.50;3.90;;;;;;;21.01;63.04;100295.03;5055008;28;20631;-83
2021/07/28 07:06:53;;;;;;;3.97;3.57;;;;;;;21.10;63.57;100297.56;5060595;28;20231;-82
2021/07/28 07:09:20;;;;;;;3.63;3.33;;;;;;;21.23;63.19;100286.19;5055626;28;20207;-80
2021/07/28 07:11:46;;;;;;;4.67;3.90;;;;;;;21.34;62.52;100285.81;5058498;28;20226;-80
2021/07/28 07:14:13;;;;;;;4.47;3.77;;;;;;;21.41;61.58;100294.09;5050115;28;20205;-80
2021/07/28 07:16:40;;;;;;;3.97;3.67;;;;;;;21.42;61.33;100291.22;5056927;28;20241;-80
2021/07/28 07:19:06;;;;;;;4.27;3.30;;;;;;;21.45;61.40;100290.88;5059583;28;20241;-80
2021/07/28 07:21:33;;;;;;;6.40;3.73;;;;;;;21.47;61.06;100288.81;5059827;28;20209;-82
2021/07/28 07:24:01;;;;;;;4.90;3.83;;;;;;;21.55;61.33;100303.34;5058673;28;20198;-81
2021/07/28 07:26:27;;;;;;;5.47;3.95;;;;;;;21.70;61.20;100304.28;5055534;28;20571;-81
2021/07/28 07:28:54;;;;;;;4.30;3.83;;;;;;;21.78;60.74;100301.53;5056522;28;20207;-80
2021/07/28 07:31:20;;;;;;;4.47;3.57;;;;;;;21.85;60.39;100307.09;5051017;28;20594;-80
2021/07/28 07:33:47;;;;;;;4.63;3.70;;;;;;;21.87;59.93;100311.31;5056899;28;20295;-80
2021/07/28 07:36:15;;;;;;;4.57;3.70;;;;;;;21.87;59.76;100316.72;5053732;28;20311;-80
2021/07/28 07:38:41;;;;;;;4.93;3.80;;;;;;;21.96;60.58;100314.81;5048951;28;20767;-80
2021/07/28 07:41:09;;;;;;;5.37;3.80;;;;;;;22.09;60.42;100305.09;5052805;28;20215;-80
2021/07/28 07:43:36;;;;;;;4.22;3.70;;;;;;;22.17;59.77;100313.19;5046296;28;20232;-80
2021/07/28 07:46:03;;;;;;;5.93;4.32;;;;;;;22.20;59.51;100311.16;5054040;28;20224;-80
2021/07/28 07:48:30;;;;;;;5.20;3.88;;;;;;;22.16;59.36;100316.09;5055469;28;20662;-81
2021/07/28 07:50:56;;;;;;;8.85;5.05;;;;;;;22.12;59.63;100325.59;5056830;28;20217;-81
2021/07/28 07:53:23;;;;;;;4.38;3.90;;;;;;;22.08;59.44;100311.53;5055896;28;20208;-80
2021/07/28 07:55:50;;;;;;;8.25;4.60;;;;;;;22.03;59.52;100316.69;5056688;28;20247;-80
2021/07/28 07:58:18;;;;;;;13.23;6.47;;;;;;;22.02;59.96;100316.88;5056129;28;20212;-80
2021/07/28 08:00:44;;;;;;;9.20;4.50;;;;;;;22.02;59.83;100308.72;5056858;28;20229;-81
2021/07/28 08:03:11;;;;;;;19.88;7.40;;;;;;;22.04;59.73;100307.50;5056736;28;20205;-80
2021/07/28 08:05:37;;;;;;;8.88;5.13;;;;;;;22.06;59.62;100310.88;5056498;28;20232;-81
2021/07/28 08:08:04;;;;;;;5.60;4.00;;;;;;;22.07;59.40;100322.56;5056230;28;20201;-80
2021/07/28 08:10:31;;;;;;;3.92;3.35;;;;;;;22.08;59.05;100306.13;5056378;28;20203;-81
2021/07/28 08:12:57;;;;;;;5.57;3.83;;;;;;;22.09;59.11;100310.53;5057245;28;20209;-80
2021/07/28 08:15:26;;;;;;;4.95;3.30;;;;;;;22.14;59.06;100318.97;5070758;28;20211;-80
2021/07/28 08:17:52;;;;;;;6.65;4.60;;;;;;;22.23;59.07;100308.06;5056812;28;20227;-80
2021/07/28 08:20:19;;;;;;;15.07;5.75;;;;;;;22.29;58.77;100310.91;5052915;28;20228;-80
2021/07/28 08:22:45;;;;;;;5.95;4.35;;;;;;;22.36;58.46;100308.31;5054173;28;20204;-80
2021/07/28 08:25:13;;;;;;;4.25;3.85;;;;;;;22.45;58.34;100312.63;5043866;28;20214;-80
2021/07/28 08:27:39;;;;;;;10.27;4.57;;;;;;;22.52;58.12;100317.16;5051664;28;20208;-80
2021/07/28 08:30:07;;;;;;;5.82;4.10;;;;;;;22.54;57.78;100311.56;5050252;28;20207;-80
2021/07/28 08:32:35;;;;;;;5.22;4.28;;;;;;;22.57;57.96;100308.47;5050562;28;20220;-80
2021/07/28 08:35:01;;;;;;;5.05;4.55;;;;;;;22.57;57.51;100319.34;5049538;28;20197;-80
2021/07/28 08:37:28;;;;;;;5.82;4.60;;;;;;;22.54;57.13;100308.00;5051309;28;20626;-80
2021/07/28 08:39:54;;;;;;;4.60;4.20;;;;;;;22.49;57.41;100308.53;5053504;28;20222;-81
2021/07/28 08:42:23;;;;;;;6.25;5.05;;;;;;;22.50;57.98;100299.38;5055460;28;20201;-81
2021/07/28 08:44:50;;;;;;;5.28;4.45;;;;;;;22.47;57.89;100299.72;5055547;28;20292;-81
2021/07/28 08:47:19;;;;;;;6.03;4.28;;;;;;;22.43;57.67;100295.69;5053552;28;20235;-81
2021/07/28 08:49:47;;;;;;;5.05;4.53;;;;;;;22.37;58.05;100300.00;5055957;28;20197;-81
2021/07/28 08:52:14;;;;;;;5.38;4.20;;;;;;;22.35;58.01;100293.91;5055667;28;20197;-80
2021/07/28 08:54:40;;;;;;;8.30;4.32;;;;;;;22.34;58.16;100294.94;5050241;28;20216;-81
2021/07/28 08:57:11;;;;;;;7.13;4.60;;;;;;;22.34;57.96;100292.22;5051969;28;20229;-81
2021/07/28 08:59:38;;;;;;;4.70;4.30;;;;;;;22.34;58.27;100278.66;5048621;28;20276;-80
2021/07/28 09:02:04;;;;;;;7.35;4.10;;;;;;;22.43;59.10;100277.53;5043781;28;20201;-80
2021/07/28 09:04:31;;;;;;;5.30;4.72;;;;;;;22.58;59.11;100285.72;5055787;28;20292;-81
2021/07/28 09:06:59;;;;;;;4.38;3.97;;;;;;;22.70;58.32;100283.41;5048640;28;20222;-81
2021/07/28 09:09:26;;;;;;;4.30;3.75;;;;;;;22.75;58.24;100281.81;5049428;28;20648;-80
2021/07/28 09:11:54;;;;;;;4.15;3.78;;;;;;;22.82;57.47;100288.25;5050929;28;20229;-81
2021/07/28 09:14:23;;;;;;;4.63;3.35;;;;;;;22.87;56.87;100273.28;5047879;28;20249;-81
2021/07/28 09:16:50;;;;;;;6.40;3.95;;;;;;;22.88;56.34;100269.53;5051672;28;20265;-81
2021/07/28 09:19:38;;;;;;;4.57;3.90;;;;;;;22.90;56.20;100275.63;5053972;28;20221;-81
2021/07/28 09:22:07;;;;;;;5.25;3.97;;;;;;;22.91;56.16;100282.75;5052380;28;20549;-81
2021/07/28 09:24:34;;;;;;;5.55;3.70;;;;;;;22.93;56.12;100284.22;5061833;28;20638;-81
2021/07/28 09:27:01;;;;;;;5.10;3.63;;;;;;;22.93;56.00;100294.25;5054307;28;20265;-80
2021/07/28 09:29:28;;;;;;;4.53;3.20;;;;;;;22.96;55.85;100294.72;5056874;28;20205;-81
2021/07/28 09:31:56;;;;;;;3.90;3.40;;;;;;;22.99;55.63;100293.50;5048912;28;20282;-81
2021/07/28 09:34:37;;;;;;;4.10;3.70;;;;;;;23.03;55.53;100292.09;5047979;28;20572;-81
2021/07/28 09:37:10;;;;;;;4.78;3.75;;;;;;;23.04;55.59;100285.66;5048079;28;20225;-81
2021/07/28 09:39:37;;;;;;;3.60;3.30;;;;;;;23.02;55.29;100280.41;5057099;28;20704;-81
2021/07/28 09:42:11;;;;;;;3.75;3.10;;;;;;;23.00;55.33;100271.59;5056427;28;20201;-81
2021/07/28 09:44:38;;;;;;;4.43;3.70;;;;;;;23.00;55.60;100278.88;5058261;28;20197;-81
2021/07/28 09:47:11;;;;;;;3.25;3.03;;;;;;;23.09;56.33;100275.91;5056961;28;20294;-81
2021/07/28 09:49:39;;;;;;;4.03;3.70;;;;;;;23.20;55.76;100277.31;5051552;28;20209;-81
2021/07/28 09:52:25;;;;;;;4.28;3.38;;;;;;;23.28;55.59;100271.78;5062753;28;20208;-81
2021/07/28 09:54:53;;;;;;;3.45;3.00;;;;;;;23.38;55.46;100271.47;5058026;28;20205;-81
2021/07/28 09:57:21;;;;;;;3.88;3.50;;;;;;;23.47;55.19;100267.63;5060628;28;20229;-81
2021/07/28 09:59:52;;;;;;;4.25;3.58;;;;;;;23.57;54.21;100270.94;5062808;28;20225;-81
2021/07/28 10:02:21;;;;;;;5.07;3.35;;;;;;;23.67;53.69;100265.19;5061393;28;20282;-81
2021/07/28 10:04:50;;;;;;;4.53;2.97;;;;;;;23.79;53.44;100263.66;5060623;28;20265;-80
2021/07/28 10:07:18;;;;;;;3.58;3.22;;;;;;;23.92;53.43;100257.53;5064675;28;20294;-80
2021/07/28 10:09:51;;;;;;;4.18;3.72;;;;;;;24.03;52.96;100248.84;5048685;28;20244;-80
2021/07/28 10:12:18;;;;;;;3.47;3.17;;;;;;;24.17;52.26;100243.34;5053958;28;20375;-81
2021/07/28 10:14:45;;;;;;;4.32;3.70;;;;;;;24.31;52.70;100249.78;5050848;28;20216;-80
2021/07/28 10:17:13;;;;;;;4.10;3.70;;;;;;;24.43;52.22;100244.63;5055511;28;20311;-80
2021/07/28 10:19:40;;;;;;;4.55;3.42;;;;;;;24.45;51.73;100231.69;5045197;28;20275;-80
2021/07/28 10:22:08;;;;;;;3.97;3.50;;;;;;;24.46;51.21;100226.03;5051949;28;20206;-80
2021/07/28 10:24:35;;;;;;;3.88;2.97;;;;;;;24.45;50.20;100226.22;5045971;28;20234;-80
2021/07/28 10:27:04;;;;;;;3.42;2.72;;;;;;;24.49;51.02;100225.66;5047137;28;20310;-81
2021/07/28 10:29:31;;;;;;;5.18;3.30;;;;;;;24.63;51.06;100231.19;5050903;28;20223;-81
2021/07/28 10:31:58;;;;;;;3.60;3.10;;;;;;;24.76;50.59;100215.78;5049004;28;20220;-80
2021/07/28 10:34:27;;;;;;;4.72;3.10;;;;;;;24.89;50.17;100221.31;5047297;28;20212;-80
2021/07/28 10:36:54;;;;;;;3.40;3.10;;;;;;;24.98;49.21;100215.72;5053967;28;20239;-80
2021/07/28 10:39:38;;;;;;;3.90;3.10;;;;;;;25.03;48.70;100210.53;5052204;28;20244;-80
2021/07/28 10:42:07;;;;;;;3.28;2.97;;;;;;;25.10;48.75;100214.94;5049016;28;20212;-81
2021/07/28 10:45:03;;;;;;;3.70;3.30;;;;;;;25.24;49.18;100208.53;5053171;28;20208;-80
2021/07/28 10:47:37;;;;;;;2.72;2.53;;;;;;;25.45;48.92;100218.47;5051341;28;20229;-80
2021/07/28 10:50:05;;;;;;;2.95;2.72;;;;;;;25.66;48.00;100222.13;5055828;28;20206;-80
2021/07/28 10:52:44;;;;;;;3.40;2.70;;;;;;;25.78;46.98;100215.91;5060345;28;20576;-81
2021/07/28 10:55:19;;;;;;;2.90;2.70;;;;;;;25.81;46.28;100214.63;5058823;28;20211;-80
2021/07/28 10:58:22;;;;;;;2.80;2.60;;;;;;;25.85;46.67;100203.09;5061564;28;20201;-81
2021/07/28 11:01:07;;;;;;;2.85;2.65;;;;;;;25.92;46.39;100208.56;5060807;28;20412;-80
2021/07/28 11:03:38;;;;;;;3.47;3.00;;;;;;;25.91;46.82;100210.47;5060887;28;20201;-81
2021/07/28 11:06:25;;;;;;;2.53;2.33;;;;;;;25.89;46.81;100215.28;5050808;28;20229;-80
2021/07/28 11:08:54;;;;;;;3.33;2.30;;;;;;;25.90;46.47;100206.03;5052223;28;20272;-81
2021/07/28 11:11:24;;;;;;;2.72;2.33;;;;;;;25.89;45.77;100200.78;5060148;28;20215;-81
2021/07/28 11:13:51;;;;;;;3.20;2.90;;;;;;;25.90;45.93;100202.47;5060345;28;20215;-80
2021/07/28 11:16:19;;;;;;;2.90;2.70;;;;;;;25.96;46.72;100193.47;5059904;28;20230;-80
2021/07/28 11:18:46;;;;;;;2.38;2.17;;;;;;;26.05;45.81;100184.00;5060724;28;20197;-81
2021/07/28 11:21:15;;;;;;;2.00;1.90;;;;;;;26.13;45.20;100178.38;5057431;28;20233;-81
2021/07/28 11:23:47;;;;;;;3.50;2.03;;;;;;;26.15;45.29;100176.28;5058452;28;20209;-82
2021/07/28 11:26:17;;;;;;;3.13;1.90;;;;;;;26.18;44.60;100178.56;5056347;28;20217;-82
2021/07/28 11:28:45;;;;;;;2.22;2.03;;;;;;;26.24;44.81;100171.44;5056298;28;20259;-82
2021/07/28 11:31:12;;;;;;;2.28;2.08;;;;;;;26.28;44.61;100167.22;5064369;28;20212;-82